Time;durP1;ratioP1;P1;durP2;ratioP2;P2;SDS_P1;SDS_P2;PMS_P1;PMS_P2;Temp;Humidity;BMP_temperature;BMP_pressure;BME280_temperature;BME280_humidity;BME280_pressure;Samples;Min_cycle;Max_cycle;Signal;HPM_P1;HPM_P2
2021/11/07 00:00:27;;;;;;;75.23;29.93;;;3.10;99.90;;;;;;5117873;27;20047;-72
2021/11/07 00:03:03;;;;;;;84.05;30.27;;;3.20;99.90;;;;;;5117968;27;20063;-72
2021/11/07 00:05:32;;;;;;;70.63;27.23;;;3.30;99.90;;;;;;5117674;27;20055;-73
2021/11/07 00:08:10;;;;;;;69.43;27.63;;;3.30;99.90;;;;;;5118220;27;20051;-72
2021/11/07 00:10:41;;;;;;;83.90;29.10;;;3.20;99.90;;;;;;5118555;27;20291;-71
2021/11/07 00:13:15;;;;;;;70.27;27.97;;;3.10;99.90;;;;;;5118129;27;20089;-72
2021/11/07 00:15:44;;;;;;;67.57;26.47;;;3.30;99.90;;;;;;5117596;27;20050;-71
2021/11/07 00:18:16;;;;;;;64.23;26.33;;;3.00;99.90;;;;;;5118668;27;20059;-75
2021/11/07 00:20:50;;;;;;;64.23;26.47;;;3.00;99.90;;;;;;5117731;27;20043;-71
2021/11/07 00:23:28;;;;;;;67.10;25.53;;;3.10;99.90;;;;;;5117868;27;20055;-72
2021/11/07 00:25:59;;;;;;;60.37;25.23;;;3.10;99.90;;;;;;5117887;27;20058;-72
2021/11/07 00:28:33;;;;;;;61.17;25.67;;;3.10;99.90;;;;;;5117083;27;20098;-73
2021/11/07 00:31:10;;;;;;;60.47;25.60;;;3.10;99.90;;;;;;5117719;27;20058;-73
2021/11/07 00:34:01;;;;;;;52.20;24.40;;;3.20;99.90;;;;;;5117753;27;20414;-73
2021/11/07 00:36:30;;;;;;;53.40;25.17;;;3.10;99.90;;;;;;5116693;27;20055;-74
2021/11/07 00:39:08;;;;;;;58.07;25.30;;;3.30;99.90;;;;;;5118197;27;20051;-72
2021/11/07 00:41:39;;;;;;;52.60;25.17;;;3.20;99.90;;;;;;5116271;27;20202;-72
2021/11/07 00:44:09;;;;;;;50.33;22.53;;;3.20;99.90;;;;;;5117000;27;20061;-72
2021/11/07 00:46:42;;;;;;;51.60;23.17;;;3.20;99.90;;;;;;5116352;27;20063;-72
2021/11/07 00:49:12;;;;;;;56.90;25.37;;;3.10;99.90;;;;;;5117339;27;20051;-72
2021/11/07 00:51:45;;;;;;;60.30;26.47;;;3.10;99.90;;;;;;5117445;27;20958;-73
2021/11/07 00:54:19;;;;;;;54.37;25.00;;;3.00;99.90;;;;;;5116447;27;20412;-72
2021/11/07 00:56:49;;;;;;;54.87;24.97;;;3.00;99.90;;;;;;5116497;27;20043;-73
2021/11/07 00:59:29;;;;;;;52.43;23.13;;;3.00;99.90;;;;;;5116965;27;20047;-74
2021/11/07 01:02:08;;;;;;;54.80;23.70;;;3.00;99.90;;;;;;5117467;27;20054;-72
2021/11/07 01:04:37;;;;;;;51.90;23.83;;;3.00;99.90;;;;;;5116413;27;20047;-73
2021/11/07 01:07:04;;;;;;;50.77;23.33;;;3.00;99.90;;;;;;5116782;27;20115;-72
2021/11/07 01:09:31;;;;;;;54.63;24.47;;;3.00;99.90;;;;;;5116276;27;20499;-72
2021/11/07 01:11:58;;;;;;;51.87;23.27;;;3.00;99.90;;;;;;5116331;27;20048;-73
2021/11/07 01:14:25;;;;;;;55.40;24.23;;;3.00;99.90;;;;;;5116361;27;20051;-72
2021/11/07 01:16:52;;;;;;;51.90;24.40;;;3.00;99.90;;;;;;5114161;27;20047;-72
2021/11/07 01:19:21;;;;;;;53.93;25.80;;;3.00;99.90;;;;;;5116113;27;20059;-72
2021/11/07 01:21:48;;;;;;;48.87;22.87;;;3.10;99.90;;;;;;5116577;27;20566;-72
2021/11/07 01:24:19;;;;;;;48.27;23.97;;;2.90;99.90;;;;;;5115985;27;20128;-71
2021/11/07 01:26:48;;;;;;;46.93;22.97;;;3.00;99.90;;;;;;5115257;27;20510;-72
2021/11/07 01:29:17;;;;;;;46.90;22.83;;;3.00;99.90;;;;;;5116759;27;20047;-73
2021/11/07 01:31:46;;;;;;;46.83;22.77;;;2.90;99.90;;;;;;5116200;27;20051;-72
2021/11/07 01:34:20;;;;;;;39.37;19.50;;;2.90;99.90;;;;;;5115950;27;20066;-73
2021/11/07 01:36:51;;;;;;;47.63;23.03;;;2.80;99.90;;;;;;5113401;27;20142;-73
2021/11/07 01:39:21;;;;;;;40.47;20.80;;;2.70;99.90;;;;;;5114970;27;20061;-73
2021/11/07 01:42:05;;;;;;;46.23;22.57;;;2.70;99.90;;;;;;5114633;27;20471;-73
2021/11/07 01:44:41;;;;;;;47.57;22.77;;;2.80;99.90;;;;;;5115091;27;20054;-74
2021/11/07 01:47:09;;;;;;;45.83;22.67;;;2.80;99.90;;;;;;5114903;27;20341;-73
2021/11/07 01:49:40;;;;;;;45.53;21.70;;;2.80;99.90;;;;;;5116009;27;20130;-73
2021/11/07 01:52:12;;;;;;;43.67;21.63;;;2.70;99.90;;;;;;5113408;27;20051;-73
2021/11/07 01:54:50;;;;;;;43.03;21.70;;;2.70;99.90;;;;;;5114035;27;20065;-72
2021/11/07 01:57:19;;;;;;;46.30;22.43;;;2.70;99.90;;;;;;5113474;27;20055;-74
2021/11/07 01:59:47;;;;;;;44.10;21.33;;;2.70;99.90;;;;;;5115614;27;20481;-76
2021/11/07 02:02:15;;;;;;;42.30;21.53;;;2.70;99.90;;;;;;5116334;27;20445;-73
2021/11/07 02:04:43;;;;;;;42.97;22.27;;;2.80;99.90;;;;;;5115639;27;20119;-73
2021/11/07 02:07:13;;;;;;;41.67;20.37;;;2.70;99.90;;;;;;5114911;27;20515;-73
2021/11/07 02:09:41;;;;;;;44.10;21.00;;;2.70;99.90;;;;;;5114458;27;20606;-73
2021/11/07 02:12:09;;;;;;;39.63;18.80;;;2.70;99.90;;;;;;5112914;27;20388;-75
2021/11/07 02:14:37;;;;;;;42.17;21.13;;;2.60;99.90;;;;;;5113381;27;20074;-73
2021/11/07 02:17:05;;;;;;;44.80;20.93;;;2.50;99.90;;;;;;5111590;27;20055;-72
2021/11/07 02:19:32;;;;;;;38.43;18.87;;;2.50;99.90;;;;;;5113176;27;20074;-72
2021/11/07 02:22:00;;;;;;;45.63;21.37;;;2.60;99.90;;;;;;5112414;27;20054;-73
2021/11/07 02:24:28;;;;;;;41.80;21.37;;;2.50;99.90;;;;;;5111813;27;20453;-73
2021/11/07 02:26:59;;;;;;;46.00;21.13;;;2.50;99.90;;;;;;5111391;27;20061;-71
2021/11/07 02:29:27;;;;;;;49.63;21.87;;;2.50;99.90;;;;;;5112627;27;20495;-72
2021/11/07 02:31:56;;;;;;;44.57;20.87;;;2.50;99.90;;;;;;5112862;27;20046;-73
2021/11/07 02:34:23;;;;;;;49.20;21.87;;;2.50;99.90;;;;;;5112424;27;20178;-73
2021/11/07 02:36:51;;;;;;;44.67;22.77;;;2.50;99.90;;;;;;5111858;27;20051;-72
2021/11/07 02:39:20;;;;;;;43.37;19.90;;;2.50;99.90;;;;;;5112735;27;20051;-72
2021/11/07 02:41:48;;;;;;;42.80;19.90;;;2.50;99.90;;;;;;5112506;27;20139;-73
2021/11/07 02:44:30;;;;;;;45.43;21.67;;;2.50;99.90;;;;;;5113199;27;20549;-74
2021/11/07 02:46:57;;;;;;;43.57;20.63;;;2.60;99.90;;;;;;5111964;27;20552;-72
2021/11/07 02:49:24;;;;;;;49.50;22.50;;;2.60;99.90;;;;;;5112244;28;20591;-73
2021/11/07 02:51:52;;;;;;;47.03;21.93;;;2.50;99.90;;;;;;5112361;28;20082;-73
2021/11/07 02:54:20;;;;;;;49.00;21.10;;;2.50;99.90;;;;;;5111594;28;20061;-72
2021/11/07 02:56:49;;;;;;;46.67;22.27;;;2.50;99.90;;;;;;5111858;28;20036;-73
2021/11/07 02:59:21;;;;;;;46.30;21.40;;;2.50;99.90;;;;;;5112888;28;20051;-72
2021/11/07 03:01:48;;;;;;;43.93;21.60;;;2.60;99.90;;;;;;5112560;28;20046;-73
2021/11/07 03:04:15;;;;;;;46.10;21.40;;;2.60;99.90;;;;;;5113117;27;20076;-72
2021/11/07 03:06:43;;;;;;;43.53;20.47;;;2.60;99.90;;;;;;5111675;28;20130;-74
2021/11/07 03:09:14;;;;;;;48.63;22.07;;;2.60;99.90;;;;;;5113191;28;20111;-72
2021/11/07 03:11:43;;;;;;;46.37;21.57;;;2.60;99.90;;;;;;5112272;28;20062;-74
2021/11/07 03:14:14;;;;;;;45.57;20.17;;;2.60;99.90;;;;;;5112518;27;20835;-73
2021/11/07 03:16:43;;;;;;;43.20;20.80;;;2.60;99.90;;;;;;5112549;27;20127;-73
2021/11/07 03:19:10;;;;;;;44.43;22.37;;;2.60;99.90;;;;;;5118802;27;20431;-75
2021/11/07 03:21:37;;;;;;;41.90;19.77;;;2.50;99.90;;;;;;5118535;27;20173;-72
2021/11/07 03:24:04;;;;;;;44.00;21.30;;;2.50;99.90;;;;;;5118743;27;20136;-72
2021/11/07 03:26:33;;;;;;;45.10;19.70;;;2.50;99.90;;;;;;5117733;27;20107;-72
2021/11/07 03:29:04;;;;;;;46.20;20.43;;;2.50;99.90;;;;;;5118465;27;20942;-73
2021/11/07 03:31:39;;;;;;;44.93;20.63;;;2.50;99.90;;;;;;5117791;27;20051;-72
2021/11/07 03:34:11;;;;;;;42.67;19.30;;;2.50;99.90;;;;;;5116290;27;20055;-73
2021/11/07 03:36:46;;;;;;;43.50;19.97;;;2.50;99.90;;;;;;5110052;27;20074;-72
2021/11/07 03:39:14;;;;;;;42.17;17.63;;;2.40;99.90;;;;;;5112914;27;20051;-72
2021/11/07 03:41:42;;;;;;;42.27;17.33;;;2.40;99.90;;;;;;5111717;27;20039;-72
2021/11/07 03:44:10;;;;;;;39.90;17.77;;;2.40;99.90;;;;;;5112198;27;20133;-74
2021/11/07 03:46:39;;;;;;;40.50;19.13;;;2.40;99.90;;;;;;5110604;27;20414;-72
2021/11/07 03:49:08;;;;;;;39.50;18.30;;;2.40;99.90;;;;;;5112080;27;20051;-73
2021/11/07 03:51:36;;;;;;;39.33;18.77;;;2.40;99.90;;;;;;5112312;27;20077;-73
2021/11/07 03:54:03;;;;;;;43.83;18.00;;;2.40;99.90;;;;;;5112744;27;20062;-73
2021/11/07 03:56:31;;;;;;;40.63;18.60;;;2.40;99.90;;;;;;5112565;27;20419;-73
2021/11/07 03:58:58;;;;;;;37.40;18.17;;;2.30;99.90;;;;;;5112933;27;20043;-71
2021/11/07 04:01:26;;;;;;;42.00;19.83;;;2.40;99.90;;;;;;5113802;27;20062;-73
2021/11/07 04:03:54;;;;;;;38.27;18.43;;;2.40;99.90;;;;;;5118243;27;20471;-72
2021/11/07 04:06:21;;;;;;;38.00;17.33;;;2.50;99.90;;;;;;5117585;27;20063;-72
2021/11/07 04:08:48;;;;;;;41.33;19.13;;;2.50;99.90;;;;;;5118582;27;20119;-72
2021/11/07 04:11:16;;;;;;;36.33;17.20;;;2.50;99.90;;;;;;5117003;27;20062;-73
2021/11/07 04:13:43;;;;;;;39.03;18.30;;;2.50;99.90;;;;;;5118313;27;20123;-72
2021/11/07 04:16:11;;;;;;;36.93;18.27;;;2.50;99.90;;;;;;5116393;27;20047;-72
2021/11/07 04:18:43;;;;;;;35.97;18.00;;;2.60;99.90;;;;;;5111452;27;20491;-72
2021/11/07 04:21:10;;;;;;;36.13;16.77;;;2.50;99.90;;;;;;5111351;27;20499;-73
2021/11/07 04:23:37;;;;;;;35.17;16.60;;;2.50;99.90;;;;;;5109752;27;20167;-73
2021/11/07 04:26:05;;;;;;;36.20;17.07;;;2.50;99.90;;;;;;5110476;27;20397;-72
2021/11/07 04:28:32;;;;;;;39.90;18.60;;;2.50;99.90;;;;;;5111332;27;20384;-72
2021/11/07 04:30:59;;;;;;;35.57;17.13;;;2.50;99.90;;;;;;5113056;27;20055;-72
2021/11/07 04:33:26;;;;;;;38.53;17.03;;;2.40;99.90;;;;;;5111874;27;20051;-71
2021/11/07 04:35:55;;;;;;;39.93;18.67;;;2.50;99.90;;;;;;5114615;27;20100;-72
2021/11/07 04:38:22;;;;;;;35.60;17.43;;;2.40;99.90;;;;;;5117215;27;20676;-72
2021/11/07 04:40:49;;;;;;;35.90;17.70;;;2.50;99.90;;;;;;5118152;27;20055;-72
2021/11/07 04:43:17;;;;;;;38.00;17.73;;;2.50;99.90;;;;;;5117751;27;20094;-71
2021/11/07 04:45:44;;;;;;;36.90;17.70;;;2.60;99.90;;;;;;5117044;27;20128;-72
2021/11/07 04:48:11;;;;;;;37.33;17.93;;;2.70;99.90;;;;;;5118015;27;20131;-72
2021/11/07 04:50:39;;;;;;;38.77;17.87;;;2.70;99.90;;;;;;5117387;27;20094;-73
2021/11/07 04:53:10;;;;;;;39.70;18.50;;;2.70;99.90;;;;;;5117095;27;20293;-71
2021/11/07 04:55:39;;;;;;;40.23;19.03;;;2.80;99.90;;;;;;5116137;27;20051;-72
2021/11/07 04:58:06;;;;;;;41.27;20.13;;;2.80;99.90;;;;;;5117133;27;20050;-72
2021/11/07 05:00:34;;;;;;;38.73;18.50;;;2.80;99.90;;;;;;5116461;27;20047;-71
2021/11/07 05:03:02;;;;;;;37.40;18.40;;;2.90;99.90;;;;;;5118310;27;20092;-72
2021/11/07 05:05:30;;;;;;;38.73;18.40;;;2.90;99.90;;;;;;5115746;27;20047;-72
2021/11/07 05:07:58;;;;;;;43.07;19.33;;;3.00;99.90;;;;;;5118047;27;20067;-72
2021/11/07 05:10:27;;;;;;;39.10;17.33;;;2.80;99.90;;;;;;5117767;27;20123;-73
2021/11/07 05:12:54;;;;;;;38.23;18.87;;;2.90;99.90;;;;;;5117444;27;20093;-72
2021/11/07 05:15:21;;;;;;;40.10;17.50;;;3.00;99.90;;;;;;5116053;27;20516;-71
2021/11/07 05:17:48;;;;;;;39.97;18.80;;;2.90;99.90;;;;;;5116204;27;20051;-72
2021/11/07 05:20:16;;;;;;;38.87;17.43;;;2.90;99.90;;;;;;5115002;27;20392;-72
2021/11/07 05:22:44;;;;;;;43.53;19.83;;;2.90;99.90;;;;;;5111786;27;20484;-72
2021/11/07 05:25:14;;;;;;;40.47;18.27;;;3.00;99.90;;;;;;5112292;27;20061;-72
2021/11/07 05:27:42;;;;;;;39.03;19.00;;;3.00;99.90;;;;;;5112528;27;20463;-72
2021/11/07 05:30:12;;;;;;;38.20;18.40;;;3.10;99.90;;;;;;5113002;27;20047;-72
2021/11/07 05:32:39;;;;;;;39.40;18.17;;;3.10;99.90;;;;;;5114259;27;20046;-75
2021/11/07 05:35:07;;;;;;;36.67;17.80;;;3.00;99.90;;;;;;5116391;27;20114;-72
2021/11/07 05:37:34;;;;;;;38.70;18.07;;;3.00;99.90;;;;;;5115123;27;20093;-73
2021/11/07 05:40:01;;;;;;;36.90;18.30;;;3.00;99.90;;;;;;5114966;27;20085;-72
2021/11/07 05:42:28;;;;;;;42.13;19.27;;;3.10;99.90;;;;;;5116350;27;20068;-73
2021/11/07 05:44:56;;;;;;;37.03;17.27;;;3.10;99.90;;;;;;5116502;27;20381;-73
2021/11/07 05:47:23;;;;;;;38.03;17.00;;;3.10;99.90;;;;;;5114274;27;20054;-73
2021/11/07 05:49:50;;;;;;;42.70;18.63;;;3.00;99.90;;;;;;5116177;27;20047;-73
2021/11/07 05:52:18;;;;;;;41.47;18.53;;;3.10;99.90;;;;;;5116086;27;20086;-74
2021/11/07 05:54:45;;;;;;;36.30;17.57;;;3.10;99.90;;;;;;5115125;27;20039;-73
2021/11/07 05:57:12;;;;;;;39.40;18.20;;;3.20;99.90;;;;;;5114637;27;20420;-72
2021/11/07 05:59:39;;;;;;;37.67;17.10;;;3.10;99.90;;;;;;5113269;27;20139;-75
2021/11/07 06:02:07;;;;;;;38.13;17.20;;;3.20;99.90;;;;;;5113231;27;20127;-73
2021/11/07 06:04:34;;;;;;;38.10;15.40;;;3.20;99.90;;;;;;5112795;27;20127;-73
2021/11/07 06:07:01;;;;;;;40.57;17.87;;;3.30;99.90;;;;;;5113854;27;20051;-73
2021/11/07 06:09:28;;;;;;;39.10;18.17;;;3.30;99.90;;;;;;5114001;27;20091;-73
2021/11/07 06:11:55;;;;;;;41.80;19.27;;;3.40;99.90;;;;;;5114986;27;20094;-72
2021/11/07 06:14:22;;;;;;;41.03;17.90;;;3.40;99.90;;;;;;5115303;27;20111;-72
2021/11/07 06:16:49;;;;;;;36.77;18.57;;;3.50;99.90;;;;;;5115711;27;20064;-71
2021/11/07 06:19:18;;;;;;;36.27;17.67;;;3.50;99.90;;;;;;5115782;27;20058;-72
2021/11/07 06:21:46;;;;;;;43.97;17.90;;;3.50;99.90;;;;;;5115282;27;20093;-72
2021/11/07 06:24:15;;;;;;;40.40;18.53;;;3.50;99.90;;;;;;5116383;27;20051;-72
2021/11/07 06:26:42;;;;;;;38.53;17.07;;;3.60;99.90;;;;;;5114919;27;20051;-72
2021/11/07 06:29:09;;;;;;;40.97;17.07;;;3.70;99.90;;;;;;5114542;27;20155;-72
2021/11/07 06:31:36;;;;;;;38.03;17.20;;;3.70;99.90;;;;;;5115833;27;20047;-71
2021/11/07 06:34:05;;;;;;;43.90;17.60;;;3.70;99.90;;;;;;5115525;27;20054;-72
2021/11/07 06:36:33;;;;;;;40.33;17.67;;;3.70;99.90;;;;;;5115187;27;20054;-71
2021/11/07 06:39:01;;;;;;;33.90;15.93;;;3.70;99.90;;;;;;5115419;27;20143;-71
2021/11/07 06:41:28;;;;;;;41.43;15.77;;;3.70;99.90;;;;;;5112915;27;20142;-72
2021/11/07 06:43:56;;;;;;;35.53;16.23;;;3.80;99.90;;;;;;5113648;27;20069;-73
2021/11/07 06:46:23;;;;;;;35.70;16.93;;;3.80;99.90;;;;;;5114350;27;20483;-72
2021/11/07 06:48:50;;;;;;;39.80;16.97;;;3.80;99.90;;;;;;5116210;27;20483;-72
2021/11/07 06:51:18;;;;;;;39.67;16.37;;;3.80;99.90;;;;;;5113929;27;20086;-73
2021/11/07 06:53:46;;;;;;;41.20;17.30;;;3.90;99.90;;;;;;5113632;28;20039;-73
2021/11/07 06:56:13;;;;;;;36.97;16.90;;;3.90;99.90;;;;;;5114519;28;20098;-75
2021/11/07 06:58:41;;;;;;;37.40;17.70;;;3.90;99.90;;;;;;5114632;28;20064;-73
2021/11/07 07:01:08;;;;;;;37.43;16.17;;;3.90;99.90;;;;;;5115573;28;20075;-72
2021/11/07 07:03:35;;;;;;;40.37;17.13;;;3.90;99.90;;;;;;5113517;27;20086;-72
2021/11/07 07:06:03;;;;;;;37.33;17.47;;;3.90;99.90;;;;;;5114423;28;20051;-72
2021/11/07 07:08:39;;;;;;;36.40;17.80;;;4.00;99.90;;;;;;5118097;28;20059;-72
2021/11/07 07:11:11;;;;;;;36.40;16.27;;;4.00;99.90;;;;;;5120312;28;20141;-72
2021/11/07 07:13:43;;;;;;;34.33;15.57;;;4.00;99.90;;;;;;5120398;27;20060;-71
2021/11/07 07:16:20;;;;;;;38.80;16.17;;;4.10;99.90;;;;;;5120003;28;20051;-71
2021/11/07 07:18:56;;;;;;;;;;;4.10;99.90;;;;;;5121405;28;20081;-72
2021/11/07 07:21:34;;;;;;;35.30;16.00;;;4.10;99.90;;;;;;5119702;28;19975;-71
2021/11/07 07:26:58;;;;;;;34.47;16.27;;;4.20;99.90;;;;;;5119884;28;20054;-71
2021/11/07 07:29:36;;;;;;;34.20;15.83;;;4.20;99.90;;;;;;5119870;28;20564;-71
2021/11/07 07:34:56;;;;;;;31.97;16.07;;;4.30;99.90;;;;;;5103207;28;20039;-72
2021/11/07 07:37:23;;;;;;;33.17;15.63;;;4.20;99.90;;;;;;5119879;28;20046;-73
2021/11/07 07:39:51;;;;;;;34.87;16.20;;;4.20;99.90;;;;;;5118900;28;20047;-72
2021/11/07 07:42:20;;;;;;;35.70;16.47;;;4.20;99.90;;;;;;5120313;28;20047;-73
2021/11/07 07:44:50;;;;;;;35.83;16.67;;;4.30;99.90;;;;;;5120554;28;20047;-72
2021/11/07 07:47:17;;;;;;;35.10;16.27;;;4.30;99.90;;;;;;5120678;27;20055;-72
2021/11/07 07:49:45;;;;;;;33.47;15.50;;;4.20;99.90;;;;;;5119721;28;20051;-73
2021/11/07 07:52:12;;;;;;;35.83;18.47;;;4.20;99.90;;;;;;5120176;28;20079;-72
2021/11/07 07:54:39;;;;;;;33.07;16.50;;;4.30;99.90;;;;;;5119672;27;20457;-72
2021/11/07 07:57:06;;;;;;;35.20;17.33;;;4.20;99.90;;;;;;5120505;28;20511;-72
2021/11/07 07:59:35;;;;;;;37.20;17.30;;;4.40;99.90;;;;;;5119851;28;20091;-72
2021/11/07 08:02:03;;;;;;;32.10;16.57;;;4.30;99.90;;;;;;5120576;28;20062;-73
2021/11/07 08:04:30;;;;;;;34.40;16.47;;;4.40;99.90;;;;;;5123583;27;20051;-72
2021/11/07 08:06:56;;;;;;;38.10;17.07;;;4.40;99.90;;;;;;5124135;27;20074;-72
2021/11/07 08:09:24;;;;;;;35.80;17.13;;;4.40;99.90;;;;;;5123897;27;20461;-72
2021/11/07 08:11:51;;;;;;;37.97;17.33;;;4.40;99.90;;;;;;5124693;27;20075;-73
2021/11/07 08:14:18;;;;;;;43.27;18.07;;;4.40;99.90;;;;;;5123770;27;20556;-73
2021/11/07 08:16:47;;;;;;;38.23;17.63;;;4.40;99.90;;;;;;5124181;27;20040;-75
2021/11/07 08:19:14;;;;;;;40.73;18.47;;;4.40;99.90;;;;;;5124282;27;20051;-73
2021/11/07 08:21:45;;;;;;;37.17;17.53;;;4.40;99.90;;;;;;5123996;27;20491;-72
2021/11/07 08:24:14;;;;;;;43.70;19.67;;;4.40;99.90;;;;;;5125331;27;20066;-72
2021/11/07 08:26:43;;;;;;;39.13;19.00;;;4.40;99.90;;;;;;5124647;27;20104;-71
2021/11/07 08:29:13;;;;;;;41.03;18.87;;;4.40;99.90;;;;;;5123630;27;20797;-71
2021/11/07 08:31:41;;;;;;;43.20;19.33;;;4.50;99.90;;;;;;5124858;27;20058;-71
2021/11/07 08:34:09;;;;;;;41.30;18.83;;;4.40;99.90;;;;;;5123822;27;20062;-71
2021/11/07 08:36:41;;;;;;;50.47;20.40;;;4.50;99.90;;;;;;5121793;27;20047;-71
2021/11/07 08:39:14;;;;;;;38.63;18.80;;;4.60;99.90;;;;;;5123683;27;20055;-70
2021/11/07 08:41:46;;;;;;;46.53;21.23;;;4.50;99.90;;;;;;5122668;27;20047;-71
2021/11/07 09:00:45;;;;;;;49.77;19.97;;;4.10;99.90;;;;;;5123115;27;20521;-72
2021/11/07 09:03:16;;;;;;;48.10;20.43;;;4.20;99.90;;;;;;5123092;27;20100;-72
2021/11/07 09:05:54;;;;;;;46.90;20.00;;;4.30;99.90;;;;;;5123648;27;20053;-72
2021/11/07 09:08:23;;;;;;;45.67;20.43;;;4.30;99.90;;;;;;5123482;27;20054;-72
2021/11/07 09:10:52;;;;;;;57.90;22.30;;;4.40;99.90;;;;;;5123709;27;20051;-73
2021/11/07 09:13:19;;;;;;;48.20;19.83;;;4.30;99.90;;;;;;5123058;27;20078;-73
2021/11/07 09:15:50;;;;;;;48.80;20.67;;;4.30;99.90;;;;;;5122333;27;20051;-72
2021/11/07 09:18:17;;;;;;;44.97;20.73;;;4.40;99.90;;;;;;5123821;27;20511;-72
2021/11/07 09:20:52;;;;;;;53.58;22.73;;;4.40;99.90;;;;;;5123447;27;20584;-72
2021/11/07 09:23:25;;;;;;;49.10;21.45;;;4.40;99.90;;;;;;5122264;27;20055;-73
2021/11/07 09:26:06;;;;;;;46.93;21.43;;;4.40;99.90;;;;;;5122173;27;20073;-73
2021/11/07 09:28:38;;;;;;;53.67;21.00;;;4.40;99.90;;;;;;5120773;27;20108;-72
2021/11/07 09:31:11;;;;;;;53.73;22.60;;;4.50;99.90;;;;;;5122726;27;20051;-72
2021/11/07 09:33:47;;;;;;;46.33;20.77;;;4.50;99.90;;;;;;5122862;27;20058;-72
2021/11/07 09:36:20;;;;;;;50.97;22.05;;;4.50;99.90;;;;;;5123483;27;20092;-72
2021/11/07 09:38:51;;;;;;;53.92;22.17;;;4.60;99.90;;;;;;5122305;27;20450;-72
2021/11/07 09:41:27;;;;;;;48.30;20.75;;;4.70;99.90;;;;;;5122095;27;20055;-72
2021/11/07 09:43:58;;;;;;;51.17;20.45;;;4.70;99.90;;;;;;5121375;27;20555;-72
2021/11/07 09:46:34;;;;;;;56.65;22.65;;;4.70;99.90;;;;;;5120984;27;20100;-71
2021/11/07 09:49:13;;;;;;;51.08;21.25;;;4.70;99.90;;;;;;5121980;27;20055;-72
2021/11/07 09:51:42;;;;;;;48.72;21.33;;;4.70;99.90;;;;;;5121566;27;20517;-71
2021/11/07 09:54:12;;;;;;;47.70;21.75;;;4.70;99.90;;;;;;5122202;27;20047;-71
2021/11/07 09:56:45;;;;;;;48.80;19.98;;;4.70;99.90;;;;;;5121497;27;20081;-71
2021/11/07 09:59:13;;;;;;;48.03;20.58;;;4.80;99.90;;;;;;5121712;27;20476;-70
2021/11/07 10:01:41;;;;;;;53.90;23.17;;;4.90;99.90;;;;;;5118946;27;20551;-71
2021/11/07 10:04:09;;;;;;;51.05;21.77;;;4.80;99.90;;;;;;5122239;27;20043;-72
2021/11/07 10:06:42;;;;;;;47.25;20.65;;;4.90;99.90;;;;;;5121633;27;20059;-71
2021/11/07 10:09:13;;;;;;;41.37;18.37;;;4.90;99.90;;;;;;5121187;27;20078;-71
2021/11/07 10:12:03;;;;;;;54.10;21.88;;;5.20;99.90;;;;;;5121750;27;20047;-71
2021/11/07 10:14:40;;;;;;;46.60;20.60;;;5.20;99.90;;;;;;5120886;27;20446;-71
2021/11/07 10:17:28;;;;;;;53.47;21.75;;;5.20;99.90;;;;;;5120713;27;20138;-71
2021/11/07 10:20:07;;;;;;;43.95;19.35;;;5.30;99.90;;;;;;5118397;27;20055;-71
2021/11/07 10:22:35;;;;;;;44.70;19.13;;;5.40;99.90;;;;;;5117278;27;20051;-73
2021/11/07 10:25:09;;;;;;;35.88;16.98;;;5.40;99.90;;;;;;5118067;27;20504;-71
2021/11/07 10:27:39;;;;;;;31.30;14.20;;;5.40;99.90;;;;;;5117313;27;20055;-72
2021/11/07 10:30:18;;;;;;;23.73;12.63;;;5.60;99.90;;;;;;5118666;27;20051;-72
2021/11/07 10:32:57;;;;;;;29.92;13.25;;;5.70;99.90;;;;;;5118600;27;20047;-72
2021/11/07 10:44:40;;;;;;;22.02;10.15;;;5.80;99.90;;;;;;5119722;27;20057;-72
2021/11/07 10:47:24;;;;;;;16.23;8.73;;;5.90;99.90;;;;;;5118842;27;20047;-73
2021/11/07 10:52:39;;;;;;;15.70;7.97;;;6.00;99.90;;;;;;5120884;28;20070;-71
2021/11/07 10:55:07;;;;;;;15.10;8.05;;;6.00;99.90;;;;;;5120950;28;20051;-71
2021/11/07 10:57:35;;;;;;;13.77;7.25;;;6.00;99.90;;;;;;5120728;28;20039;-71
2021/11/07 11:00:11;;;;;;;14.45;7.57;;;6.10;99.90;;;;;;5119691;28;20612;-71
2021/11/07 11:02:40;;;;;;;13.40;7.13;;;6.10;99.90;;;;;;5119554;27;20107;-70
2021/11/07 11:05:10;;;;;;;13.55;6.88;;;6.20;99.90;;;;;;5118924;28;20107;-73
2021/11/07 11:07:50;;;;;;;13.50;6.75;;;6.30;99.90;;;;;;5117580;28;20047;-73
2021/11/07 11:10:20;;;;;;;14.10;6.72;;;6.40;99.90;;;;;;5118556;28;20460;-72
2021/11/07 11:13:11;;;;;;;12.43;7.18;;;6.40;99.90;;;;;;5119077;27;20245;-72
2021/11/07 11:15:48;;;;;;;14.75;7.30;;;6.50;99.90;;;;;;5118524;28;20515;-72
2021/11/07 11:24:11;;;;;;;13.52;6.85;;;6.50;99.90;;;;;;5119512;28;20126;-71
2021/11/07 11:26:59;;;;;;;13.63;6.97;;;6.60;99.90;;;;;;5118031;28;20126;-72
2021/11/07 11:32:16;;;;;;;11.32;6.13;;;6.60;99.90;;;;;;5114467;28;20055;-72
2021/11/07 11:34:48;;;;;;;13.90;6.82;;;6.60;99.90;;;;;;5120228;28;20058;-72
2021/11/07 11:37:21;;;;;;;11.75;5.50;;;6.60;99.90;;;;;;5121058;27;20050;-72
2021/11/07 11:39:55;;;;;;;12.00;5.60;;;6.60;99.90;;;;;;5125498;27;20112;-72
2021/11/07 11:42:26;;;;;;;12.88;6.35;;;6.60;99.90;;;;;;5125724;27;20098;-73
2021/11/07 11:44:56;;;;;;;13.90;6.40;;;6.60;99.90;;;;;;5124523;27;20137;-71
2021/11/07 11:48:04;;;;;;;12.80;6.57;;;6.80;99.90;;;;;;5125116;27;20138;-71
2021/11/07 11:50:49;;;;;;;12.23;5.78;;;6.80;99.90;;;;;;5124566;27;20142;-71
2021/11/07 11:53:26;;;;;;;11.38;6.15;;;6.80;99.90;;;;;;5124277;27;20051;-72
2021/11/07 11:55:57;;;;;;;11.80;6.00;;;6.70;99.90;;;;;;5122198;27;20139;-72
2021/11/07 11:58:42;;;;;;;11.60;5.82;;;6.70;99.90;;;;;;5121659;27;20146;-72
2021/11/07 12:01:18;;;;;;;9.73;5.47;;;6.80;99.90;;;;;;5124589;27;20047;-70
2021/11/07 12:03:57;;;;;;;14.32;5.28;;;6.90;99.90;;;;;;5123516;27;20522;-71
2021/11/07 12:06:31;;;;;;;11.45;5.75;;;6.90;99.90;;;;;;5121578;27;20100;-71
2021/11/07 12:09:26;;;;;;;11.82;5.82;;;6.90;99.90;;;;;;5124305;27;20130;-70
2021/11/07 12:11:57;;;;;;;12.07;6.40;;;7.00;99.90;;;;;;5121172;27;20464;-71
2021/11/07 12:14:32;;;;;;;9.98;5.43;;;7.00;99.90;;;;;;5121450;27;20053;-71
2021/11/07 12:17:04;;;;;;;10.68;5.57;;;7.10;99.90;;;;;;5121139;27;20298;-71
2021/11/07 12:19:37;;;;;;;9.00;5.18;;;7.10;99.90;;;;;;5120685;27;20065;-72
2021/11/07 12:22:13;;;;;;;10.60;5.22;;;7.00;99.90;;;;;;5121836;27;20127;-72
2021/11/07 12:25:06;;;;;;;11.07;6.00;;;7.10;99.90;;;;;;5122372;27;20121;-71
2021/11/07 12:27:37;;;;;;;9.77;5.38;;;7.00;99.90;;;;;;5122935;27;20083;-71
2021/11/07 12:30:22;;;;;;;10.10;5.38;;;7.00;99.90;;;;;;5123322;27;20066;-71
2021/11/07 12:33:00;;;;;;;10.88;5.80;;;7.00;99.90;;;;;;5122806;27;20086;-72
2021/11/07 12:35:34;;;;;;;11.00;5.63;;;7.00;99.90;;;;;;5122887;27;20051;-73
2021/11/07 12:40:57;;;;;;;10.63;5.40;;;7.10;99.90;;;;;;5123561;27;20057;-74
2021/11/07 12:43:26;;;;;;;12.23;6.00;;;7.10;99.90;;;;;;5123203;27;20051;-76
2021/11/07 12:46:01;;;;;;;12.13;6.40;;;7.10;99.90;;;;;;5123926;27;20289;-72
2021/11/07 12:48:43;;;;;;;11.38;5.43;;;7.10;99.90;;;;;;5123337;27;20058;-73
2021/11/07 12:51:13;;;;;;;10.25;5.97;;;7.00;99.90;;;;;;5121857;27;20503;-71
2021/11/07 12:54:03;;;;;;;12.15;5.93;;;7.00;99.90;;;;;;5122149;27;20071;-71
2021/11/07 12:56:40;;;;;;;11.55;5.47;;;7.10;99.90;;;;;;5121804;27;20457;-72
2021/11/07 12:59:10;;;;;;;10.25;5.00;;;7.10;99.90;;;;;;5123024;27;20086;-72
2021/11/07 13:02:16;;;;;;;8.02;4.38;;;7.10;99.90;;;;;;5123213;27;20084;-72
2021/11/07 13:04:55;;;;;;;9.27;4.95;;;7.20;99.90;;;;;;5033377;28;20048;-72
2021/11/07 13:07:44;;;;;;;9.07;4.53;;;7.70;99.90;;;;;;5113358;27;20066;-72
2021/11/07 13:10:18;;;;;;;9.95;4.57;;;7.50;99.90;;;;;;5123470;27;20142;-72
2021/11/07 13:12:51;;;;;;;10.02;4.65;;;7.50;99.90;;;;;;5122761;27;20058;-72
2021/11/07 13:15:47;;;;;;;9.30;4.78;;;7.60;99.90;;;;;;5121182;27;20051;-72
2021/11/07 13:18:35;;;;;;;8.55;4.43;;;7.60;99.90;;;;;;5122516;27;20051;-70
2021/11/07 13:29:46;;;;;;;8.98;3.83;;;7.60;99.90;;;;;;5072838;27;20487;-71
2021/11/07 13:32:31;;;;;;;7.35;3.58;;;7.60;99.90;;;;;;5119536;27;20055;-72
2021/11/07 13:35:11;;;;;;;7.88;3.60;;;7.60;99.90;;;;;;5121204;27;20450;-72
2021/11/07 13:37:47;;;;;;;7.40;3.95;;;7.50;99.90;;;;;;5119814;27;20617;-72
2021/11/07 13:40:21;;;;;;;8.43;4.20;;;7.50;99.90;;;;;;5120521;27;20142;-71
2021/11/07 13:42:48;;;;;;;9.93;4.45;;;7.50;99.90;;;;;;5122590;27;20054;-73
2021/11/07 13:45:23;;;;;;;8.00;3.85;;;7.50;99.90;;;;;;5120893;27;20492;-71
2021/11/07 13:47:51;;;;;;;9.25;4.88;;;7.30;99.90;;;;;;5119733;27;20556;-72
2021/11/07 13:50:21;;;;;;;9.10;4.55;;;7.30;99.90;;;;;;5119600;27;20403;-72
2021/11/07 13:52:52;;;;;;;10.18;4.95;;;7.30;99.90;;;;;;5119216;27;20123;-73
2021/11/07 13:55:22;;;;;;;9.45;4.95;;;7.40;99.90;;;;;;5119010;27;20096;-73